KMLU

Monroe Regional Airport

Monroe, Louisiana, USA
METAR KMLU 260353Z AUTO 00000KT 8SM -RA SCT120 22/21 A2990 RMK AO2 TSE17 SLP124 P0002 T02220211
Observed Flight Rules
May-26 @ 03:53 UTC (20 minutes ago) Visual Flight Rules
Visibility Clouds Conditions
8 miles
  • Scattered at 12,000' AGL
  • Light Rain
Temperatures Readings Precipitation
Current 22°C / 72°F
Dewpoint 21°C / 70°F
Humidity 94%
Altimeter 29.9" Hg
Pressure 1012.4 hPa
Elevation 29
Current Rain 0.02
METAR KMLU 260353Z AUTO 00000KT 8SM -RA SCT120 22/21 A2990 RMK AO2 TSE17 SLP124 P0002 T02220211
Observed Flight Rules
May-26 @ 03:53 UTC
(20 minutes ago)
VFR
Clouds
  • Scattered at 12,000' AGL
Conditions
  • Light Rain
Temperature Dewpoint
22°C / 72°F 21°C / 70°F
Humidity Altimeter Pressure
94% 29.9" Hg 1012.4 hPa
Current Rain
0.02